sensor_id;sensor_type;location;lat;lon;timestamp;pressure;altitude;pressure_sealevel;temperature
68510;BMP180;55512;50.102;19.958;2023-09-18T00:01:47;98964.20;;;17.50
68510;BMP180;55512;50.102;19.958;2023-09-18T00:04:13;98962.60;;;17.50
68510;BMP180;55512;50.102;19.958;2023-09-18T00:06:39;98958.40;;;17.46
68510;BMP180;55512;50.102;19.958;2023-09-18T00:09:04;98959.80;;;17.46
68510;BMP180;55512;50.102;19.958;2023-09-18T00:11:31;98959.60;;;17.40
68510;BMP180;55512;50.102;19.958;2023-09-18T00:13:57;98957.00;;;17.40
68510;BMP180;55512;50.102;19.958;2023-09-18T00:16:22;98955.00;;;17.40
68510;BMP180;55512;50.102;19.958;2023-09-18T00:18:50;98949.20;;;17.40
68510;BMP180;55512;50.102;19.958;2023-09-18T00:21:15;98943.40;;;17.40
68510;BMP180;55512;50.102;19.958;2023-09-18T00:23:41;98937.80;;;17.40
68510;BMP180;55512;50.102;19.958;2023-09-18T00:26:07;98941.00;;;17.40
68510;BMP180;55512;50.102;19.958;2023-09-18T00:28:32;98942.40;;;17.40
68510;BMP180;55512;50.102;19.958;2023-09-18T00:30:58;98940.80;;;17.40
68510;BMP180;55512;50.102;19.958;2023-09-18T00:33:23;98944.60;;;17.34
68510;BMP180;55512;50.102;19.958;2023-09-18T00:35:50;98945.60;;;17.30
68510;BMP180;55512;50.102;19.958;2023-09-18T00:38:16;98941.00;;;17.28
68510;BMP180;55512;50.102;19.958;2023-09-18T00:40:42;98940.60;;;17.20
68510;BMP180;55512;50.102;19.958;2023-09-18T00:43:08;98936.80;;;17.20
68510;BMP180;55512;50.102;19.958;2023-09-18T00:45:42;98935.40;;;17.10
68510;BMP180;55512;50.102;19.958;2023-09-18T00:48:09;98932.00;;;17.00
68510;BMP180;55512;50.102;19.958;2023-09-18T00:50:36;98940.20;;;17.00
68510;BMP180;55512;50.102;19.958;2023-09-18T00:53:02;98938.20;;;17.00
68510;BMP180;55512;50.102;19.958;2023-09-18T00:55:30;98939.00;;;17.00
68510;BMP180;55512;50.102;19.958;2023-09-18T00:57:56;98939.20;;;17.00
68510;BMP180;55512;50.102;19.958;2023-09-18T01:00:22;98943.00;;;16.98
68510;BMP180;55512;50.102;19.958;2023-09-18T01:02:48;98939.60;;;16.90
68510;BMP180;55512;50.102;19.958;2023-09-18T01:05:14;98937.60;;;16.90
68510;BMP180;55512;50.102;19.958;2023-09-18T01:07:43;98937.80;;;16.90
68510;BMP180;55512;50.102;19.958;2023-09-18T01:10:09;98939.60;;;16.90
68510;BMP180;55512;50.102;19.958;2023-09-18T01:12:55;98938.00;;;16.80
68510;BMP180;55512;50.102;19.958;2023-09-18T01:15:36;98937.40;;;16.80
68510;BMP180;55512;50.102;19.958;2023-09-18T01:18:02;98929.40;;;16.80
68510;BMP180;55512;50.102;19.958;2023-09-18T01:20:28;98935.80;;;16.80
68510;BMP180;55512;50.102;19.958;2023-09-18T01:22:54;98934.80;;;16.80
68510;BMP180;55512;50.102;19.958;2023-09-18T01:25:19;98933.80;;;16.80
68510;BMP180;55512;50.102;19.958;2023-09-18T01:27:45;98934.00;;;16.80
68510;BMP180;55512;50.102;19.958;2023-09-18T01:30:11;98933.20;;;16.80
68510;BMP180;55512;50.102;19.958;2023-09-18T01:32:39;98932.00;;;16.80
68510;BMP180;55512;50.102;19.958;2023-09-18T01:35:06;98933.80;;;16.80
68510;BMP180;55512;50.102;19.958;2023-09-18T01:37:34;98933.80;;;16.70
68510;BMP180;55512;50.102;19.958;2023-09-18T01:40:02;98932.40;;;16.68
68510;BMP180;55512;50.102;19.958;2023-09-18T01:42:32;98935.20;;;16.60
68510;BMP180;55512;50.102;19.958;2023-09-18T01:44:59;98934.40;;;16.60
68510;BMP180;55512;50.102;19.958;2023-09-18T01:47:24;98935.60;;;16.50
68510;BMP180;55512;50.102;19.958;2023-09-18T01:49:52;98937.00;;;16.50
68510;BMP180;55512;50.102;19.958;2023-09-18T01:52:18;98937.40;;;16.50
68510;BMP180;55512;50.102;19.958;2023-09-18T01:54:43;98934.60;;;16.50
68510;BMP180;55512;50.102;19.958;2023-09-18T01:57:09;98933.00;;;16.50
68510;BMP180;55512;50.102;19.958;2023-09-18T01:59:35;98933.60;;;16.50
68510;BMP180;55512;50.102;19.958;2023-09-18T02:02:00;98932.60;;;16.50
68510;BMP180;55512;50.102;19.958;2023-09-18T02:04:29;98928.60;;;16.50
68510;BMP180;55512;50.102;19.958;2023-09-18T02:06:55;98933.00;;;16.42
68510;BMP180;55512;50.102;19.958;2023-09-18T02:09:22;98929.60;;;16.40
68510;BMP180;55512;50.102;19.958;2023-09-18T02:11:47;98933.20;;;16.40
68510;BMP180;55512;50.102;19.958;2023-09-18T02:14:14;98931.00;;;16.40
68510;BMP180;55512;50.102;19.958;2023-09-18T02:16:42;98937.00;;;16.40
68510;BMP180;55512;50.102;19.958;2023-09-18T02:19:10;98937.00;;;16.40
68510;BMP180;55512;50.102;19.958;2023-09-18T02:21:36;98935.20;;;16.40
68510;BMP180;55512;50.102;19.958;2023-09-18T02:24:03;98929.80;;;16.40
68510;BMP180;55512;50.102;19.958;2023-09-18T02:26:29;98928.40;;;16.40
68510;BMP180;55512;50.102;19.958;2023-09-18T02:29:00;98924.60;;;16.40
68510;BMP180;55512;50.102;19.958;2023-09-18T02:31:25;98930.60;;;16.40
68510;BMP180;55512;50.102;19.958;2023-09-18T02:33:51;98932.40;;;16.40
68510;BMP180;55512;50.102;19.958;2023-09-18T02:36:16;98932.00;;;16.42
68510;BMP180;55512;50.102;19.958;2023-09-18T02:38:42;98933.00;;;16.44
68510;BMP180;55512;50.102;19.958;2023-09-18T02:41:08;98931.60;;;16.40
68510;BMP180;55512;50.102;19.958;2023-09-18T02:43:34;98935.20;;;16.40
68510;BMP180;55512;50.102;19.958;2023-09-18T02:45:59;98943.00;;;16.40
68510;BMP180;55512;50.102;19.958;2023-09-18T02:48:25;98940.00;;;16.40
68510;BMP180;55512;50.102;19.958;2023-09-18T02:50:50;98941.40;;;16.40
68510;BMP180;55512;50.102;19.958;2023-09-18T02:53:20;98936.40;;;16.40
68510;BMP180;55512;50.102;19.958;2023-09-18T02:55:55;98933.40;;;16.40
68510;BMP180;55512;50.102;19.958;2023-09-18T02:58:21;98923.40;;;16.40
68510;BMP180;55512;50.102;19.958;2023-09-18T03:00:50;98919.00;;;16.40
68510;BMP180;55512;50.102;19.958;2023-09-18T03:03:16;98922.20;;;16.40
68510;BMP180;55512;50.102;19.958;2023-09-18T03:05:43;98927.00;;;16.40
68510;BMP180;55512;50.102;19.958;2023-09-18T03:08:11;98927.80;;;16.40
68510;BMP180;55512;50.102;19.958;2023-09-18T03:10:41;98936.00;;;16.40
68510;BMP180;55512;50.102;19.958;2023-09-18T03:13:08;98932.80;;;16.40
68510;BMP180;55512;50.102;19.958;2023-09-18T03:15:34;98924.00;;;16.40
68510;BMP180;55512;50.102;19.958;2023-09-18T03:18:03;98924.60;;;16.40
68510;BMP180;55512;50.102;19.958;2023-09-18T03:20:30;98922.20;;;16.30
68510;BMP180;55512;50.102;19.958;2023-09-18T03:22:57;98917.20;;;16.30
68510;BMP180;55512;50.102;19.958;2023-09-18T03:25:24;98912.80;;;16.30
68510;BMP180;55512;50.102;19.958;2023-09-18T03:27:52;98912.20;;;16.30
68510;BMP180;55512;50.102;19.958;2023-09-18T03:30:19;98913.80;;;16.30
68510;BMP180;55512;50.102;19.958;2023-09-18T03:32:45;98910.80;;;16.30
68510;BMP180;55512;50.102;19.958;2023-09-18T03:35:11;98908.80;;;16.30
68510;BMP180;55512;50.102;19.958;2023-09-18T03:37:51;98903.80;;;16.28
68510;BMP180;55512;50.102;19.958;2023-09-18T03:40:18;98903.80;;;16.20
68510;BMP180;55512;50.102;19.958;2023-09-18T03:42:44;98902.60;;;16.20
68510;BMP180;55512;50.102;19.958;2023-09-18T03:45:10;98902.60;;;16.20
68510;BMP180;55512;50.102;19.958;2023-09-18T03:47:40;98897.20;;;16.20
68510;BMP180;55512;50.102;19.958;2023-09-18T03:50:07;98897.40;;;16.20
68510;BMP180;55512;50.102;19.958;2023-09-18T03:52:33;98897.00;;;16.20
68510;BMP180;55512;50.102;19.958;2023-09-18T03:54:58;98898.80;;;16.10
68510;BMP180;55512;50.102;19.958;2023-09-18T03:57:24;98894.40;;;16.10
68510;BMP180;55512;50.102;19.958;2023-09-18T03:59:49;98891.80;;;16.10
68510;BMP180;55512;50.102;19.958;2023-09-18T04:02:15;98889.80;;;16.10
68510;BMP180;55512;50.102;19.958;2023-09-18T04:04:40;98887.80;;;16.10
68510;BMP180;55512;50.102;19.958;2023-09-18T04:07:07;98882.00;;;16.10
68510;BMP180;55512;50.102;19.958;2023-09-18T04:09:32;98882.00;;;16.10
68510;BMP180;55512;50.102;19.958;2023-09-18T04:12:01;98876.40;;;16.00
68510;BMP180;55512;50.102;19.958;2023-09-18T04:14:26;98878.40;;;16.00
68510;BMP180;55512;50.102;19.958;2023-09-18T04:16:52;98880.80;;;16.00
68510;BMP180;55512;50.102;19.958;2023-09-18T04:19:17;98875.40;;;16.00
68510;BMP180;55512;50.102;19.958;2023-09-18T04:21:43;98872.20;;;16.00
68510;BMP180;55512;50.102;19.958;2023-09-18T04:24:08;98871.20;;;15.96
68510;BMP180;55512;50.102;19.958;2023-09-18T04:26:34;98870.80;;;16.00
68510;BMP180;55512;50.102;19.958;2023-09-18T04:29:00;98863.80;;;16.00
68510;BMP180;55512;50.102;19.958;2023-09-18T04:31:27;98856.60;;;16.00
68510;BMP180;55512;50.102;19.958;2023-09-18T04:33:53;98855.00;;;16.00
68510;BMP180;55512;50.102;19.958;2023-09-18T04:36:19;98854.40;;;16.00
68510;BMP180;55512;50.102;19.958;2023-09-18T04:38:45;98859.80;;;16.00
68510;BMP180;55512;50.102;19.958;2023-09-18T04:41:11;98858.40;;;16.00
68510;BMP180;55512;50.102;19.958;2023-09-18T04:43:39;98857.80;;;16.00
68510;BMP180;55512;50.102;19.958;2023-09-18T04:46:04;98862.00;;;16.00
68510;BMP180;55512;50.102;19.958;2023-09-18T04:48:31;98860.40;;;16.04
68510;BMP180;55512;50.102;19.958;2023-09-18T04:50:58;98863.20;;;16.06
68510;BMP180;55512;50.102;19.958;2023-09-18T04:53:24;98865.60;;;16.08
68510;BMP180;55512;50.102;19.958;2023-09-18T04:55:50;98868.00;;;16.10
68510;BMP180;55512;50.102;19.958;2023-09-18T04:58:17;98868.40;;;16.10
68510;BMP180;55512;50.102;19.958;2023-09-18T05:00:42;98871.00;;;16.10
68510;BMP180;55512;50.102;19.958;2023-09-18T05:03:09;98864.80;;;16.10
68510;BMP180;55512;50.102;19.958;2023-09-18T05:05:36;98864.60;;;16.10
68510;BMP180;55512;50.102;19.958;2023-09-18T05:08:05;98861.00;;;16.10
68510;BMP180;55512;50.102;19.958;2023-09-18T05:10:33;98864.00;;;16.10
68510;BMP180;55512;50.102;19.958;2023-09-18T05:12:59;98861.40;;;16.10
68510;BMP180;55512;50.102;19.958;2023-09-18T05:15:25;98852.00;;;16.16
68510;BMP180;55512;50.102;19.958;2023-09-18T05:17:52;98853.40;;;16.20
68510;BMP180;55512;50.102;19.958;2023-09-18T05:20:21;98851.60;;;16.20
68510;BMP180;55512;50.102;19.958;2023-09-18T05:22:51;98849.80;;;16.20
68510;BMP180;55512;50.102;19.958;2023-09-18T05:25:24;98850.20;;;16.20
68510;BMP180;55512;50.102;19.958;2023-09-18T05:27:53;98848.40;;;16.30
68510;BMP180;55512;50.102;19.958;2023-09-18T05:30:34;98840.40;;;16.30
68510;BMP180;55512;50.102;19.958;2023-09-18T05:33:02;98843.20;;;16.30
68510;BMP180;55512;50.102;19.958;2023-09-18T05:35:42;98840.60;;;16.40
68510;BMP180;55512;50.102;19.958;2023-09-18T05:38:10;98837.20;;;16.40
68510;BMP180;55512;50.102;19.958;2023-09-18T05:40:36;98841.00;;;16.50
68510;BMP180;55512;50.102;19.958;2023-09-18T05:43:02;98836.00;;;16.60
68510;BMP180;55512;50.102;19.958;2023-09-18T05:45:27;98835.40;;;16.66
68510;BMP180;55512;50.102;19.958;2023-09-18T05:47:54;98833.40;;;16.72
68510;BMP180;55512;50.102;19.958;2023-09-18T05:50:26;98829.60;;;16.80
68510;BMP180;55512;50.102;19.958;2023-09-18T05:52:54;98826.20;;;16.90
68510;BMP180;55512;50.102;19.958;2023-09-18T05:55:19;98830.80;;;17.00
68510;BMP180;55512;50.102;19.958;2023-09-18T05:57:45;98832.80;;;17.10
68510;BMP180;55512;50.102;19.958;2023-09-18T06:00:11;98837.00;;;17.20
68510;BMP180;55512;50.102;19.958;2023-09-18T06:02:39;98833.80;;;17.30
68510;BMP180;55512;50.102;19.958;2023-09-18T06:05:06;98836.80;;;17.38
68510;BMP180;55512;50.102;19.958;2023-09-18T06:07:32;98832.80;;;17.48
68510;BMP180;55512;50.102;19.958;2023-09-18T06:09:58;98835.40;;;17.52
68510;BMP180;55512;50.102;19.958;2023-09-18T06:12:24;98836.40;;;17.60
68510;BMP180;55512;50.102;19.958;2023-09-18T06:14:51;98835.60;;;17.70
68510;BMP180;55512;50.102;19.958;2023-09-18T06:17:17;98825.80;;;17.80
68510;BMP180;55512;50.102;19.958;2023-09-18T06:19:43;98828.00;;;17.90
68510;BMP180;55512;50.102;19.958;2023-09-18T06:22:09;98825.60;;;18.00
68510;BMP180;55512;50.102;19.958;2023-09-18T06:24:35;98825.40;;;18.10
68510;BMP180;55512;50.102;19.958;2023-09-18T06:27:02;98818.00;;;18.20
68510;BMP180;55512;50.102;19.958;2023-09-18T06:29:30;98818.00;;;18.26
68510;BMP180;55512;50.102;19.958;2023-09-18T06:31:55;98814.80;;;18.30
68510;BMP180;55512;50.102;19.958;2023-09-18T06:34:21;98814.40;;;18.40
68510;BMP180;55512;50.102;19.958;2023-09-18T06:36:46;98818.00;;;18.50
68510;BMP180;55512;50.102;19.958;2023-09-18T06:39:12;98818.20;;;18.58
68510;BMP180;55512;50.102;19.958;2023-09-18T06:41:37;98816.60;;;18.60
68510;BMP180;55512;50.102;19.958;2023-09-18T06:44:03;98817.60;;;18.70
68510;BMP180;55512;50.102;19.958;2023-09-18T06:46:31;98813.60;;;18.78
68510;BMP180;55512;50.102;19.958;2023-09-18T06:48:57;98810.60;;;18.80
68510;BMP180;55512;50.102;19.958;2023-09-18T06:51:23;98814.60;;;18.90
68510;BMP180;55512;50.102;19.958;2023-09-18T06:53:48;98817.00;;;19.00
68510;BMP180;55512;50.102;19.958;2023-09-18T06:56:14;98815.60;;;19.04
68510;BMP180;55512;50.102;19.958;2023-09-18T06:58:39;98810.40;;;19.10
68510;BMP180;55512;50.102;19.958;2023-09-18T07:01:05;98811.40;;;19.20
68510;BMP180;55512;50.102;19.958;2023-09-18T07:03:35;98813.60;;;19.20
68510;BMP180;55512;50.102;19.958;2023-09-18T07:06:02;98807.40;;;19.30
68510;BMP180;55512;50.102;19.958;2023-09-18T07:08:29;98802.40;;;19.40
68510;BMP180;55512;50.102;19.958;2023-09-18T07:10:55;98802.60;;;19.50
68510;BMP180;55512;50.102;19.958;2023-09-18T07:13:20;98803.80;;;19.58
68510;BMP180;55512;50.102;19.958;2023-09-18T07:15:46;98810.00;;;19.66
68510;BMP180;55512;50.102;19.958;2023-09-18T07:18:13;98811.40;;;19.78
68510;BMP180;55512;50.102;19.958;2023-09-18T07:20:48;98814.20;;;19.88
68510;BMP180;55512;50.102;19.958;2023-09-18T07:23:14;98811.40;;;20.00
68510;BMP180;55512;50.102;19.958;2023-09-18T07:25:39;98812.20;;;20.10
68510;BMP180;55512;50.102;19.958;2023-09-18T07:28:08;98810.40;;;20.18
68510;BMP180;55512;50.102;19.958;2023-09-18T07:30:34;98806.00;;;20.30
68510;BMP180;55512;50.102;19.958;2023-09-18T07:33:01;98802.60;;;20.38
68510;BMP180;55512;50.102;19.958;2023-09-18T07:35:27;98797.20;;;20.46
68510;BMP180;55512;50.102;19.958;2023-09-18T07:37:52;98794.40;;;20.50
68510;BMP180;55512;50.102;19.958;2023-09-18T07:40:18;98796.00;;;20.60
68510;BMP180;55512;50.102;19.958;2023-09-18T07:42:43;98799.60;;;20.70
68510;BMP180;55512;50.102;19.958;2023-09-18T07:45:10;98799.60;;;20.80
68510;BMP180;55512;50.102;19.958;2023-09-18T07:47:36;98793.20;;;20.90
68510;BMP180;55512;50.102;19.958;2023-09-18T07:50:02;98785.40;;;21.00
68510;BMP180;55512;50.102;19.958;2023-09-18T07:52:28;98791.80;;;21.10
68510;BMP180;55512;50.102;19.958;2023-09-18T07:54:55;98795.60;;;21.20
68510;BMP180;55512;50.102;19.958;2023-09-18T07:57:20;98800.20;;;21.30
68510;BMP180;55512;50.102;19.958;2023-09-18T07:59:48;98796.00;;;21.34
68510;BMP180;55512;50.102;19.958;2023-09-18T08:02:13;98795.00;;;21.40
68510;BMP180;55512;50.102;19.958;2023-09-18T08:04:39;98789.60;;;21.50
68510;BMP180;55512;50.102;19.958;2023-09-18T08:07:04;98799.60;;;21.60
68510;BMP180;55512;50.102;19.958;2023-09-18T08:09:33;98797.20;;;21.70
68510;BMP180;55512;50.102;19.958;2023-09-18T08:12:06;98794.00;;;21.80
68510;BMP180;55512;50.102;19.958;2023-09-18T08:14:32;98791.60;;;21.84
68510;BMP180;55512;50.102;19.958;2023-09-18T08:17:01;98784.00;;;21.90
68510;BMP180;55512;50.102;19.958;2023-09-18T08:19:28;98780.80;;;22.00
68510;BMP180;55512;50.102;19.958;2023-09-18T08:21:54;98782.20;;;22.10
68510;BMP180;55512;50.102;19.958;2023-09-18T08:24:22;98783.40;;;22.14
68510;BMP180;55512;50.102;19.958;2023-09-18T08:26:48;98777.80;;;22.20
68510;BMP180;55512;50.102;19.958;2023-09-18T08:29:13;98772.40;;;22.30
68510;BMP180;55512;50.102;19.958;2023-09-18T08:31:39;98771.60;;;22.40
68510;BMP180;55512;50.102;19.958;2023-09-18T08:34:04;98773.60;;;22.50
68510;BMP180;55512;50.102;19.958;2023-09-18T08:36:30;98779.80;;;22.60
68510;BMP180;55512;50.102;19.958;2023-09-18T08:38:56;98776.60;;;22.68
68510;BMP180;55512;50.102;19.958;2023-09-18T08:41:23;98778.40;;;22.70
68510;BMP180;55512;50.102;19.958;2023-09-18T08:43:58;98773.40;;;22.80
68510;BMP180;55512;50.102;19.958;2023-09-18T08:46:25;98769.00;;;22.90
68510;BMP180;55512;50.102;19.958;2023-09-18T08:48:51;98766.80;;;23.00
68510;BMP180;55512;50.102;19.958;2023-09-18T08:51:18;98764.00;;;23.10
68510;BMP180;55512;50.102;19.958;2023-09-18T08:53:45;98761.80;;;23.14
68510;BMP180;55512;50.102;19.958;2023-09-18T08:56:13;98760.60;;;23.20
68510;BMP180;55512;50.102;19.958;2023-09-18T08:58:39;98758.40;;;23.30
68510;BMP180;55512;50.102;19.958;2023-09-18T09:01:09;98752.00;;;23.40
68510;BMP180;55512;50.102;19.958;2023-09-18T09:03:39;98751.80;;;23.48
68510;BMP180;55512;50.102;19.958;2023-09-18T09:06:07;98751.60;;;23.54
68510;BMP180;55512;50.102;19.958;2023-09-18T09:08:33;98750.20;;;23.60
68510;BMP180;55512;50.102;19.958;2023-09-18T09:10:59;98747.60;;;23.70
68510;BMP180;55512;50.102;19.958;2023-09-18T09:13:25;98751.60;;;23.80
68510;BMP180;55512;50.102;19.958;2023-09-18T09:15:54;98745.80;;;23.90
68510;BMP180;55512;50.102;19.958;2023-09-18T09:18:23;98746.20;;;24.00
68510;BMP180;55512;50.102;19.958;2023-09-18T09:21:07;98746.00;;;24.06
68510;BMP180;55512;50.102;19.958;2023-09-18T09:24:02;98747.40;;;24.10
68510;BMP180;55512;50.102;19.958;2023-09-18T09:26:28;98740.40;;;24.20
68510;BMP180;55512;50.102;19.958;2023-09-18T09:28:53;98736.80;;;24.30
68510;BMP180;55512;50.102;19.958;2023-09-18T09:31:28;98736.20;;;24.40
68510;BMP180;55512;50.102;19.958;2023-09-18T09:33:54;98729.60;;;24.50
68510;BMP180;55512;50.102;19.958;2023-09-18T09:36:22;98730.00;;;24.54
68510;BMP180;55512;50.102;19.958;2023-09-18T09:38:48;98728.20;;;24.60
68510;BMP180;55512;50.102;19.958;2023-09-18T09:41:15;98724.60;;;24.70
68510;BMP180;55512;50.102;19.958;2023-09-18T09:43:44;98722.40;;;24.80
68510;BMP180;55512;50.102;19.958;2023-09-18T09:46:17;98723.80;;;24.90
68510;BMP180;55512;50.102;19.958;2023-09-18T09:49:04;98723.20;;;24.92
68510;BMP180;55512;50.102;19.958;2023-09-18T09:51:31;98715.20;;;25.00
68510;BMP180;55512;50.102;19.958;2023-09-18T09:53:58;98714.80;;;25.10
68510;BMP180;55512;50.102;19.958;2023-09-18T09:56:47;98717.00;;;25.20
68510;BMP180;55512;50.102;19.958;2023-09-18T09:59:21;98718.40;;;25.30
68510;BMP180;55512;50.102;19.958;2023-09-18T10:01:48;98716.20;;;25.30
68510;BMP180;55512;50.102;19.958;2023-09-18T10:04:18;98723.40;;;25.40
68510;BMP180;55512;50.102;19.958;2023-09-18T10:06:50;98715.40;;;25.50
68510;BMP180;55512;50.102;19.958;2023-09-18T10:09:17;98714.00;;;25.60
68510;BMP180;55512;50.102;19.958;2023-09-18T10:11:49;98708.40;;;25.70
68510;BMP180;55512;50.102;19.958;2023-09-18T10:14:20;98704.20;;;25.70
68510;BMP180;55512;50.102;19.958;2023-09-18T10:16:53;98699.00;;;25.80
68510;BMP180;55512;50.102;19.958;2023-09-18T10:19:33;98698.00;;;25.90
68510;BMP180;55512;50.102;19.958;2023-09-18T10:22:33;98692.40;;;26.00
68510;BMP180;55512;50.102;19.958;2023-09-18T10:25:14;98691.00;;;26.10
68510;BMP180;55512;50.102;19.958;2023-09-18T10:27:48;98681.80;;;26.12
68510;BMP180;55512;50.102;19.958;2023-09-18T10:30:25;98681.40;;;26.20
68510;BMP180;55512;50.102;19.958;2023-09-18T10:32:52;98682.60;;;26.30
68510;BMP180;55512;50.102;19.958;2023-09-18T10:35:19;98675.20;;;26.30
68510;BMP180;55512;50.102;19.958;2023-09-18T10:37:48;98671.20;;;26.40
68510;BMP180;55512;50.102;19.958;2023-09-18T10:40:17;98671.80;;;26.50
68510;BMP180;55512;50.102;19.958;2023-09-18T10:42:47;98674.00;;;26.50
68510;BMP180;55512;50.102;19.958;2023-09-18T10:45:13;98671.40;;;26.60
68510;BMP180;55512;50.102;19.958;2023-09-18T10:47:43;98672.20;;;26.70
68510;BMP180;55512;50.102;19.958;2023-09-18T10:50:26;98673.00;;;26.70
68510;BMP180;55512;50.102;19.958;2023-09-18T10:52:52;98671.20;;;26.80
68510;BMP180;55512;50.102;19.958;2023-09-18T10:55:18;98673.20;;;26.82
68510;BMP180;55512;50.102;19.958;2023-09-18T10:57:56;98665.40;;;26.90
68510;BMP180;55512;50.102;19.958;2023-09-18T11:00:25;98662.40;;;27.00
68510;BMP180;55512;50.102;19.958;2023-09-18T11:02:54;98659.60;;;27.02
68510;BMP180;55512;50.102;19.958;2023-09-18T11:05:34;98658.80;;;27.10
68510;BMP180;55512;50.102;19.958;2023-09-18T11:11:07;98653.80;;;27.30
68510;BMP180;55512;50.102;19.958;2023-09-18T11:13:55;98654.80;;;27.30
68510;BMP180;55512;50.102;19.958;2023-09-18T11:21:30;98647.80;;;27.60
68510;BMP180;55512;50.102;19.958;2023-09-18T11:24:02;98647.20;;;27.76
68510;BMP180;55512;50.102;19.958;2023-09-18T11:26:45;98645.80;;;27.94
68510;BMP180;55512;50.102;19.958;2023-09-18T11:29:15;98650.20;;;28.10
68510;BMP180;55512;50.102;19.958;2023-09-18T11:31:44;98645.40;;;28.30
68510;BMP180;55512;50.102;19.958;2023-09-18T11:34:24;98637.20;;;28.46
68510;BMP180;55512;50.102;19.958;2023-09-18T11:36:57;98629.20;;;28.60
68510;BMP180;55512;50.102;19.958;2023-09-18T11:39:41;98634.00;;;28.70
68510;BMP180;55512;50.102;19.958;2023-09-18T11:42:20;98638.00;;;28.80
68510;BMP180;55512;50.102;19.958;2023-09-18T11:44:52;98636.20;;;28.86
68510;BMP180;55512;50.102;19.958;2023-09-18T11:47:24;98633.40;;;28.90
68510;BMP180;55512;50.102;19.958;2023-09-18T11:49:53;98626.80;;;29.00
68510;BMP180;55512;50.102;19.958;2023-09-18T11:52:27;98633.40;;;29.02
68510;BMP180;55512;50.102;19.958;2023-09-18T11:54:56;98626.00;;;29.10
68510;BMP180;55512;50.102;19.958;2023-09-18T11:57:21;98626.60;;;29.20
68510;BMP180;55512;50.102;19.958;2023-09-18T11:59:48;98626.00;;;29.28
68510;BMP180;55512;50.102;19.958;2023-09-18T12:04:54;98624.20;;;29.40
68510;BMP180;55512;50.102;19.958;2023-09-18T12:07:20;98619.00;;;29.50
68510;BMP180;55512;50.102;19.958;2023-09-18T12:09:46;98612.80;;;29.60
68510;BMP180;55512;50.102;19.958;2023-09-18T12:12:12;98610.20;;;29.60
68510;BMP180;55512;50.102;19.958;2023-09-18T12:14:39;98609.40;;;29.62
68510;BMP180;55512;50.102;19.958;2023-09-18T12:17:07;98610.60;;;29.70
68510;BMP180;55512;50.102;19.958;2023-09-18T12:19:33;98600.20;;;29.80
68510;BMP180;55512;50.102;19.958;2023-09-18T12:22:01;98593.40;;;29.88
68510;BMP180;55512;50.102;19.958;2023-09-18T12:24:26;98594.40;;;29.90
68510;BMP180;55512;50.102;19.958;2023-09-18T12:26:54;98588.00;;;30.00
68510;BMP180;55512;50.102;19.958;2023-09-18T12:29:21;98583.60;;;30.10
68510;BMP180;55512;50.102;19.958;2023-09-18T12:31:47;98574.80;;;30.20
68510;BMP180;55512;50.102;19.958;2023-09-18T12:34:21;98572.20;;;30.30
68510;BMP180;55512;50.102;19.958;2023-09-18T12:36:47;98574.60;;;30.40
68510;BMP180;55512;50.102;19.958;2023-09-18T12:39:14;98573.60;;;30.52
68510;BMP180;55512;50.102;19.958;2023-09-18T12:41:47;98573.80;;;30.60
68510;BMP180;55512;50.102;19.958;2023-09-18T12:44:13;98565.80;;;30.70
68510;BMP180;55512;50.102;19.958;2023-09-18T12:46:42;98567.00;;;30.70
68510;BMP180;55512;50.102;19.958;2023-09-18T12:49:18;98565.20;;;30.70
68510;BMP180;55512;50.102;19.958;2023-09-18T12:51:44;98562.00;;;30.80
68510;BMP180;55512;50.102;19.958;2023-09-18T12:54:09;98558.00;;;30.82
68510;BMP180;55512;50.102;19.958;2023-09-18T12:56:43;98559.00;;;30.90
68510;BMP180;55512;50.102;19.958;2023-09-18T12:59:09;98561.20;;;30.90
68510;BMP180;55512;50.102;19.958;2023-09-18T13:01:35;98557.60;;;30.90
68510;BMP180;55512;50.102;19.958;2023-09-18T13:04:03;98550.40;;;31.00
68510;BMP180;55512;50.102;19.958;2023-09-18T13:06:31;98547.60;;;31.00
68510;BMP180;55512;50.102;19.958;2023-09-18T13:09:16;98539.60;;;31.10
68510;BMP180;55512;50.102;19.958;2023-09-18T13:11:57;98535.60;;;31.16
68510;BMP180;55512;50.102;19.958;2023-09-18T13:14:23;98531.40;;;31.20
68510;BMP180;55512;50.102;19.958;2023-09-18T13:16:49;98529.20;;;31.28
68510;BMP180;55512;50.102;19.958;2023-09-18T13:19:14;98530.60;;;31.30
68510;BMP180;55512;50.102;19.958;2023-09-18T13:21:47;98527.20;;;31.40
68510;BMP180;55512;50.102;19.958;2023-09-18T13:24:29;98523.40;;;31.50
68510;BMP180;55512;50.102;19.958;2023-09-18T13:26:56;98520.20;;;31.60
68510;BMP180;55512;50.102;19.958;2023-09-18T13:29:25;98519.00;;;31.70
68510;BMP180;55512;50.102;19.958;2023-09-18T13:31:53;98517.60;;;31.90
68510;BMP180;55512;50.102;19.958;2023-09-18T13:34:19;98514.20;;;32.00
68510;BMP180;55512;50.102;19.958;2023-09-18T13:36:45;98509.20;;;32.20
68510;BMP180;55512;50.102;19.958;2023-09-18T13:39:12;98509.80;;;32.32
68510;BMP180;55512;50.102;19.958;2023-09-18T13:41:39;98508.00;;;32.42
68510;BMP180;55512;50.102;19.958;2023-09-18T13:44:06;98507.80;;;32.60
68510;BMP180;55512;50.102;19.958;2023-09-18T13:46:32;98509.40;;;32.70
68510;BMP180;55512;50.102;19.958;2023-09-18T13:49:03;98511.60;;;32.70
68510;BMP180;55512;50.102;19.958;2023-09-18T13:51:31;98506.20;;;32.90
68510;BMP180;55512;50.102;19.958;2023-09-18T13:53:57;98503.40;;;33.30
68510;BMP180;55512;50.102;19.958;2023-09-18T13:56:23;98502.80;;;33.70
68510;BMP180;55512;50.102;19.958;2023-09-18T13:58:54;98496.80;;;34.44
68510;BMP180;55512;50.102;19.958;2023-09-18T14:01:24;98496.80;;;35.62
68510;BMP180;55512;50.102;19.958;2023-09-18T14:03:54;98497.60;;;37.10
68510;BMP180;55512;50.102;19.958;2023-09-18T14:06:20;98501.80;;;37.74
68510;BMP180;55512;50.102;19.958;2023-09-18T14:08:45;98505.60;;;38.64
68510;BMP180;55512;50.102;19.958;2023-09-18T14:11:11;98498.20;;;40.00
68510;BMP180;55512;50.102;19.958;2023-09-18T14:13:36;98498.80;;;41.62